02:02
Airports
History
Links
Donate
Help keep this website running!
PayPal
Bitcoin
This page is community maintained. The information is intended for PC simulator navigation or reference.
Always use approved charts for navigation.
LIMF
Torino Caselle
Torino Caselle (LIMF)
San Maurizio Canavese, Piemonte, Italy (10077)
(C)
Lat/Lng:45° 12' 2.75" N / 7° 38' 58.67" E
45.200763 / 7.649631
Elevation:989'ft / 301mMSL
ID / ICAO:LIMF
Runways:1
Longest:18-36
Asphalt 3,299m / 10,824ft
Controlled:Yes
METAR01:50 GMT 2017-09-20
Altimeter: 29.97
Visibility: 6.2 statute miles
Wind: 3 knots (from 280°)
Temp: 10°c / 50°f
Humidity: %

METAR: LIMF 200150Z 28003KT 240V310 CAVOK 10/00 Q1015

(Powered by phpweather)
Airport Radio Frequencies
ATIS: 120.47
Ground: 121.7
Tower: 118.5
Approach: 121.1, 129.27
Nearby VORs <50NM
Nearby NDBs
Runway 18 / 36
Dimensions:3299.1 x 60.1m 10824' x 197'ft
Surface:Asphalt
Edge Lights:Medium intensity
Runway 18 [A]Runway 36 [B]
Heading:182°TH 002°TH
Lat:
Lng:
45° 12' 56.14"N
7° 39' 2.06"E
45° 11' 9.35"N
7° 38' 55.28"E
TDZ:Yes, lighted
User Notes and Comments
45° 12' 2.75" N / 7° 38' 58.67" E
Distance To
Airport ID:
Nearby Airports
(C) Torino Aeritalia 8.3 NM
LIMA SSW 195°
(X) Aeroporto Cerrina near Orbassano Torino 15.8 NM
LILT SSW 208°
(U) BIELLA CERRIONE 30.0 NM
LILE NE 47°
(C) Vercelli 38.1 NM
LILI ENE 78°
(C) AOSTA 39.6 NM
LIMW NNW 339°
4 Casale Monferrato 39.8 NM
LILM E 99°
(C) Sollieres Sardieres 41.4 NM
LFKD W 275°
VFR Chart
Flight Planning at SkyVector.com